Time;durP1;ratioP1;P1;durP2;ratioP2;P2;SDS_P1;SDS_P2;PMS_P1;PMS_P2;Temp;Humidity;BMP_temperature;BMP_pressure;BME280_temperature;BME280_humidity;BME280_pressure;Samples;Min_cycle;Max_cycle;Signal;HPM_P1;HPM_P2
2023/06/18 00:01:06;;;;;;;;;17.00;15.00;;;;;14.05;100.00;99367.09;6277843;20;2491935;-59
2023/06/18 00:03:35;;;;;;;;;17.50;16.00;;;;;13.97;100.00;99360.59;6278295;20;2832714;-59
2023/06/18 00:06:03;;;;;;;;;18.00;18.00;;;;;13.90;100.00;99362.06;6279387;20;3574275;-58
2023/06/18 00:08:31;;;;;;;;;20.00;18.00;;;;;13.71;100.00;99358.16;6277337;20;2835725;-59
2023/06/18 00:10:58;;;;;;;;;18.50;18.50;;;;;14.00;100.00;99352.25;6275025;20;2500315;-59
2023/06/18 00:13:26;;;;;;;;;16.50;16.50;;;;;13.89;100.00;99355.81;6278944;20;2491925;-58
2023/06/18 00:15:54;;;;;;;;;17.50;17.50;;;;;14.08;100.00;99355.19;6276407;20;2824273;-59
2023/06/18 00:18:21;;;;;;;;;17.50;17.50;;;;;14.01;100.00;99349.44;6276089;20;2500292;-59
2023/06/18 00:20:49;;;;;;;;;18.00;16.00;;;;;14.41;100.00;99348.00;6274014;20;2491963;-59
2023/06/18 00:23:17;;;;;;;;;23.67;19.67;;;;;14.16;100.00;99357.25;6272414;20;3585741;-59
2023/06/18 00:25:46;;;;;;;;;18.00;17.00;;;;;14.17;100.00;99346.34;6276172;20;3569035;-59
2023/06/18 00:28:14;;;;;;;;;17.00;17.00;;;;;14.04;100.00;99354.59;6277303;20;2828437;-59
2023/06/18 00:30:42;;;;;;;;;18.00;18.00;;;;;14.13;100.00;99350.28;6279174;20;2826461;-59
2023/06/18 00:33:10;;;;;;;;;19.00;18.00;;;;;13.90;100.00;99345.88;6276495;20;3567961;-59
2023/06/18 00:35:39;;;;;;;;;17.00;15.00;;;;;14.09;100.00;99351.53;6282189;20;2818018;-59
2023/06/18 00:38:07;;;;;;;;;15.50;15.00;;;;;14.20;100.00;99356.03;6310363;20;2842014;-58
2023/06/18 00:40:35;;;;;;;;;17.00;17.00;;;;;14.44;100.00;99355.84;6277869;20;2833650;-59
2023/06/18 00:43:03;;;;;;;;;17.50;17.50;;;;;14.31;100.00;99355.16;6280414;20;2833722;-59
2023/06/18 00:45:32;;;;;;;;;18.00;18.00;;;;;14.21;100.00;99349.66;6277379;20;2841953;-58
2023/06/18 00:48:00;;;;;;;;;16.00;15.00;;;;;14.11;100.00;99345.97;6276802;20;2823254;-58
2023/06/18 00:50:32;;;;;;;;;17.00;17.00;;;;;14.05;100.00;99350.88;6280188;20;2835702;-59
2023/06/18 00:53:00;;;;;;;;;17.50;17.50;;;;;14.19;100.00;99341.69;6278161;20;2826346;-59
2023/06/18 00:55:30;;;;;;;;;20.50;19.00;;;;;14.06;100.00;99343.69;6279370;20;2829392;-59
2023/06/18 00:58:02;;;;;;;;;17.00;15.50;;;;;13.97;100.00;99339.88;6280455;20;2500432;-59
2023/06/18 01:00:34;;;;;;;;;19.00;19.00;;;;;13.78;100.00;99345.03;6280416;20;2835703;-59
2023/06/18 01:03:16;;;;;;;;;20.00;19.00;;;;;14.08;100.00;99340.84;6283325;20;2840001;-59
2023/06/18 01:05:47;;;;;;;;;19.00;15.00;;;;;14.30;99.83;99346.19;6280087;20;2483596;-58
2023/06/18 01:08:17;;;;;;;;;17.00;15.50;;;;;14.24;99.11;99350.28;6280253;20;2500361;-58
2023/06/18 01:10:44;;;;;;;;;16.50;16.00;;;;;14.12;100.00;99356.66;6278894;20;2492106;-59
2023/06/18 01:13:14;;;;;;;;;17.50;17.00;;;;;13.81;100.00;99344.78;6278722;20;2492012;-59
2023/06/18 01:15:43;;;;;;;;;20.00;17.00;;;;;13.41;100.00;99344.41;6278579;20;2830500;-58
2023/06/18 01:18:12;;;;;;;;;16.50;16.00;;;;;13.23;100.00;99341.28;6283127;20;2492064;-59
2023/06/18 01:20:42;;;;;;;;;21.67;18.00;;;;;13.05;100.00;99343.56;6282222;20;3558612;-58
2023/06/18 01:23:25;;;;;;;;;16.00;15.00;;;;;12.91;100.00;99336.56;6280792;20;3540923;-59
2023/06/18 01:25:59;;;;;;;;;18.00;18.00;;;;;13.02;100.00;99339.28;6274913;20;2833706;-59
2023/06/18 01:28:30;;;;;;;;;15.00;15.00;;;;;13.19;100.00;99340.66;6284109;20;2496116;-59
2023/06/18 01:30:58;;;;;;;;;18.00;15.50;;;;;13.59;100.00;99337.56;6278943;20;2820165;-59
2023/06/18 01:33:27;;;;;;;;;23.00;20.50;;;;;13.55;100.00;99344.16;6281730;20;2839853;-58
2023/06/18 01:35:54;;;;;;;;;20.50;16.00;;;;;13.45;100.00;99340.47;6279074;20;2500368;-59
2023/06/18 01:38:47;;;;;;;;;16.00;15.00;;;;;13.77;100.00;99346.00;6286856;20;2500463;-59
2023/06/18 01:41:26;;;;;;;;;18.00;17.67;;;;;13.60;100.00;99350.06;6281120;20;3564895;-59
2023/06/18 01:44:01;;;;;;;;;18.50;17.00;;;;;13.95;100.00;99358.00;6278740;20;2835795;-59
2023/06/18 01:46:30;;;;;;;;;19.50;16.50;;;;;14.06;100.00;99357.19;6277472;20;2834088;-59
2023/06/18 01:49:04;;;;;;;;;18.00;16.33;;;;;14.15;99.95;99355.56;6282279;20;3560707;-59
2023/06/18 01:51:35;;;;;;;;;16.50;16.50;;;;;14.18;100.00;99366.09;6277671;20;2483634;-59
2023/06/18 01:54:05;;;;;;;;;18.00;18.00;;;;;14.28;99.12;99358.97;6283091;20;2841974;-59
2023/06/18 01:56:34;;;;;;;;;18.50;18.00;;;;;14.13;99.97;99366.47;6279640;20;2835757;-59
2023/06/18 01:59:03;;;;;;;;;15.00;15.00;;;;;13.98;100.00;99354.22;6283749;20;2494528;-59
2023/06/18 02:01:31;;;;;;;;;17.00;17.00;;;;;14.03;100.00;99357.41;6276372;20;2487842;-59
2023/06/18 02:03:59;;;;;;;;;16.00;16.00;;;;;13.86;100.00;99360.63;6279969;20;2823335;-58
2023/06/18 02:06:28;;;;;;;;;21.00;18.00;;;;;13.56;100.00;99356.66;6281850;20;2824267;-59
2023/06/18 02:08:56;;;;;;;;;13.33;13.33;;;;;13.41;100.00;99360.59;6281932;20;3525287;-58
2023/06/18 02:11:25;;;;;;;;;18.33;17.33;;;;;13.31;100.00;99366.69;6311985;20;3575349;-59
2023/06/18 02:13:53;;;;;;;;;17.00;17.00;;;;;13.12;100.00;99361.84;6279537;20;2491975;-59
2023/06/18 02:16:21;;;;;;;;;19.00;19.00;;;;;12.99;100.00;99368.31;6279851;20;2839875;-58
2023/06/18 02:18:49;;;;;;;;;18.33;17.33;;;;;12.94;100.00;99363.25;6283081;20;2829483;-58
2023/06/18 02:21:17;;;;;;;;;21.67;18.00;;;;;13.05;100.00;99365.13;6313839;20;3577578;-58
2023/06/18 02:23:46;;;;;;;;;20.50;18.50;;;;;13.25;100.00;99366.31;6279272;20;2839858;-59
2023/06/18 02:26:13;;;;;;;;;19.50;19.00;;;;;13.33;100.00;99375.53;6277900;20;2492012;-59
2023/06/18 02:28:41;;;;;;;;;17.00;17.00;;;;;13.11;100.00;99370.94;6280479;20;3562842;-58
2023/06/18 02:31:10;;;;;;;;;18.50;16.00;;;;;12.93;100.00;99373.19;6278608;20;2835773;-58
2023/06/18 02:33:38;;;;;;;;;21.50;20.50;;;;;13.21;100.00;99373.75;6282433;20;2832637;-59
2023/06/18 02:36:06;;;;;;;;;19.00;18.00;;;;;13.09;100.00;99378.25;6276313;20;2827534;-59
2023/06/18 02:38:34;;;;;;;;;19.00;19.00;;;;;13.11;100.00;99381.72;6275970;20;2500295;-59
2023/06/18 02:41:02;;;;;;;;;17.00;17.00;;;;;13.40;100.00;99386.69;6281831;20;2836761;-59
2023/06/18 02:43:31;;;;;;;;;15.33;15.33;;;;;13.54;100.00;99382.94;6281784;20;3554424;-59
2023/06/18 02:46:02;;;;;;;;;15.00;15.00;;;;;13.62;100.00;99391.28;6277249;20;2816951;-59
2023/06/18 02:48:30;;;;;;;;;18.00;17.00;;;;;13.73;100.00;99385.03;6278561;20;2835782;-59
2023/06/18 02:50:59;;;;;;;;;20.00;20.00;;;;;13.55;100.00;99384.63;6279658;20;2845062;-59
2023/06/18 02:53:27;;;;;;;;;19.67;18.67;;;;;13.49;100.00;99390.53;6281526;20;3572112;-58
2023/06/18 02:55:54;;;;;;;;;19.50;18.00;;;;;13.58;100.00;99389.78;6275080;20;2487850;-59
2023/06/18 02:58:27;;;;;;;;;20.50;17.50;;;;;13.78;100.00;99394.47;6280887;20;2835749;-59
2023/06/18 03:00:57;;;;;;;;;19.50;18.50;;;;;13.79;100.00;99393.47;6277700;20;2500265;-59
2023/06/18 03:03:26;;;;;;;;;17.00;17.00;;;;;14.06;100.00;99386.88;6277930;20;3561783;-59
2023/06/18 03:05:54;;;;;;;;;19.67;16.67;;;;;14.08;99.97;99394.81;6280121;20;3560720;-59
2023/06/18 03:08:22;;;;;;;;;17.50;17.50;;;;;14.08;99.03;99392.97;6279908;20;2833585;-59
2023/06/18 03:10:51;;;;;;;;;17.00;17.00;;;;;14.22;98.87;99392.72;6278143;20;3559201;-59
2023/06/18 03:13:18;;;;;;;;;16.00;15.00;;;;;14.34;99.02;99409.75;6281873;20;2491973;-59
2023/06/18 03:15:46;;;;;;;;;13.67;13.67;;;;;14.32;98.15;99406.31;6280087;20;3539871;-59
2023/06/18 03:18:14;;;;;;;;;16.50;15.50;;;;;14.26;99.22;99399.59;6278520;20;2823357;-59
2023/06/18 03:20:42;;;;;;;;;19.50;19.00;;;;;14.44;97.84;99408.03;6278845;20;2491970;-58
2023/06/18 03:23:10;;;;;;;;;16.00;15.00;;;;;14.40;97.23;99405.69;6278689;20;3552446;-58
2023/06/18 03:25:39;;;;;;;;;16.67;15.00;;;;;14.58;97.23;99400.66;6276061;20;3548214;-58
2023/06/18 03:28:07;;;;;;;;;17.00;17.00;;;;;14.37;97.74;99409.50;6279283;20;2483728;-58
2023/06/18 03:30:36;;;;;;;;;16.33;14.67;;;;;14.52;97.30;99401.16;6311647;20;3544041;-58
2023/06/18 03:33:04;;;;;;;;;17.00;17.00;;;;;14.25;98.63;99408.69;6311844;20;3569042;-59
2023/06/18 03:35:33;;;;;;;;;18.33;16.33;;;;;14.37;99.27;99408.66;6310560;20;3567017;-59
2023/06/18 03:38:00;;;;;;;;;16.50;15.00;;;;;14.39;98.75;99422.91;6309788;20;2500281;-58
2023/06/18 03:40:30;;;;;;;;;15.00;15.00;;;;;14.43;99.11;99427.09;6279228;20;3538822;-58
2023/06/18 03:42:58;;;;;;;;;19.00;18.50;;;;;14.60;98.72;99433.81;6278093;20;2836794;-58
2023/06/18 03:45:25;;;;;;;;;18.50;18.50;;;;;14.74;97.27;99428.13;6275667;20;2498203;-59
2023/06/18 03:47:53;;;;;;;;;16.50;16.50;;;;;14.77;96.66;99427.91;6278548;20;2827505;-59
2023/06/18 03:50:21;;;;;;;;;18.00;17.00;;;;;14.66;97.71;99431.47;6277561;20;2487831;-59
2023/06/18 03:52:50;;;;;;;;;17.00;17.00;;;;;14.76;97.53;99431.56;6281010;20;2830515;-59
2023/06/18 03:55:18;;;;;;;;;20.67;16.67;;;;;15.02;96.15;99437.50;6277462;20;3569030;-59
2023/06/18 03:57:45;;;;;;;;;19.50;18.00;;;;;15.21;95.27;99433.25;6275070;20;2489863;-59
2023/06/18 04:00:14;;;;;;;;;16.00;15.00;;;;;15.14;95.41;99430.22;6277829;20;3547188;-59
2023/06/18 04:02:41;;;;;;;;;16.00;16.00;;;;;15.36;94.32;99426.53;6277922;20;2483591;-59
2023/06/18 04:05:10;;;;;;;;;18.00;17.00;;;;;15.56;92.93;99425.69;6279066;20;2833823;-59
2023/06/18 04:07:39;;;;;;;;;16.50;16.50;;;;;15.62;93.36;99437.81;6280649;20;2835727;-58
2023/06/18 04:10:07;;;;;;;;;17.50;16.50;;;;;15.55;92.84;99429.34;6280589;20;2825361;-58
2023/06/18 04:12:36;;;;;;;;;15.33;14.33;;;;;15.72;92.97;99435.22;6280875;20;3536989;-59
2023/06/18 04:15:04;;;;;;;;;16.00;16.00;;;;;15.75;92.86;99440.34;6277886;20;3552402;-59
2023/06/18 04:17:40;;;;;;;;;16.00;16.00;;;;;15.80;93.21;99438.09;6279067;20;2695599;-59
2023/06/18 04:20:09;;;;;;;;;13.50;13.50;;;;;15.89;92.01;99431.00;6307312;20;2500334;-58
2023/06/18 04:22:37;;;;;;;;;13.67;13.67;;;;;15.87;91.66;99436.56;6277669;20;3531641;-59
2023/06/18 04:25:06;;;;;;;;;16.00;15.33;;;;;16.37;90.41;99442.03;6308860;20;3548197;-58
2023/06/18 04:27:34;;;;;;;;;13.67;13.67;;;;;16.56;88.13;99452.09;6279539;20;3524417;-59
2023/06/18 04:30:03;;;;;;;;;18.00;15.67;;;;;16.36;89.68;99448.47;6310978;20;2821085;-59
2023/06/18 04:32:30;;;;;;;;;17.00;15.50;;;;;16.41;89.01;99448.91;6315256;20;2488291;-58
2023/06/18 04:34:57;;;;;;;;;17.50;17.50;;;;;16.66;87.92;99443.97;6283019;20;2487818;-59
2023/06/18 04:37:26;;;;;;;;;16.00;15.00;;;;;16.59;87.60;99456.41;6284515;20;3550393;-58
2023/06/18 04:39:53;;;;;;;;;15.00;13.00;;;;;16.64;88.94;99454.97;6286733;20;2792977;-59
2023/06/18 04:42:21;;;;;;;;;13.00;13.00;;;;;16.89;87.24;99461.75;6283403;20;3526302;-59
2023/06/18 04:44:49;;;;;;;;;14.00;14.00;;;;;17.24;85.11;99463.06;6314486;20;3531538;-59
2023/06/18 04:47:17;;;;;;;;;12.50;12.50;;;;;17.84;81.61;99453.91;6279755;20;3402320;-59
2023/06/18 04:49:46;;;;;;;;;14.33;13.00;;;;;17.66;82.54;99457.31;6313037;20;3516140;-59
2023/06/18 04:52:14;;;;;;;;;15.00;14.00;;;;;18.02;81.16;99459.44;6317266;20;2798291;-59
2023/06/18 04:54:42;;;;;;;;;13.33;13.33;;;;;17.64;82.42;99459.34;6282042;20;3518091;-59
2023/06/18 04:57:11;;;;;;;;;14.67;14.33;;;;;17.41;83.89;99461.50;6312277;20;3532762;-59
2023/06/18 04:59:39;;;;;;;;;16.00;13.67;;;;;17.52;84.70;99460.50;6280703;20;2790995;-58
2023/06/18 05:02:07;;;;;;;;;13.00;13.00;;;;;17.59;82.28;99463.47;6320981;20;2683884;-59
2023/06/18 05:04:35;;;;;;;;;15.33;15.00;;;;;17.83;82.65;99465.78;6278595;20;3556958;-59
2023/06/18 05:07:03;;;;;;;;;14.00;14.00;;;;;17.71;81.89;99465.88;6283689;20;2491972;-59
2023/06/18 05:09:31;;;;;;;;;15.67;15.00;;;;;18.54;79.86;99467.94;6282906;20;3550294;-59
2023/06/18 05:11:59;;;;;;;;;10.67;10.67;;;;;18.24;81.05;99478.06;6283786;20;3518178;-59
2023/06/18 05:14:27;;;;;;;;;16.00;14.50;;;;;18.17;81.53;99479.69;6312444;20;2485761;-59
2023/06/18 05:16:56;;;;;;;;;15.00;15.00;;;;;18.41;80.47;99488.16;6281390;20;3536883;-58
2023/06/18 05:19:24;;;;;;;;;17.67;13.67;;;;;18.59;79.44;99490.97;6316765;20;3534667;-59
2023/06/18 05:21:52;;;;;;;;;13.33;13.00;;;;;18.62;78.77;99493.38;6284561;20;3539000;-59
2023/06/18 05:24:21;;;;;;;;;17.33;12.67;;;;;18.82;78.51;99493.28;6284427;20;3531620;-59
2023/06/18 05:26:49;;;;;;;;;15.00;13.50;;;;;18.97;77.86;99494.50;6281745;20;2803421;-60
2023/06/18 05:29:18;;;;;;;;;13.67;13.67;;;;;19.16;79.39;99495.38;6283843;20;3534788;-60
2023/06/18 05:31:47;;;;;;;;;15.33;15.00;;;;;19.50;77.36;99495.53;6314561;20;3539993;-60
2023/06/18 05:34:16;;;;;;;;;14.67;13.33;;;;;19.50;78.26;99503.69;6284487;20;3519132;-60
2023/06/18 05:36:44;;;;;;;;;14.67;14.67;;;;;19.39;77.63;99512.13;6289207;20;3534787;-60
2023/06/18 05:39:12;;;;;;;;;12.67;12.67;;;;;19.88;76.46;99507.97;6315547;20;3520195;-60
2023/06/18 05:41:40;;;;;;;;;13.00;13.00;;;;;20.12;75.51;99520.06;6319268;20;2798229;-58
2023/06/18 05:44:08;;;;;;;;;15.67;14.00;;;;;20.00;74.48;99507.72;6282931;20;3544131;-60
2023/06/18 05:46:36;;;;;;;;;13.67;13.67;;;;;19.62;75.34;99512.50;6283167;20;3521030;-60
2023/06/18 05:49:04;;;;;;;;;12.33;12.33;;;;;19.90;73.36;99515.97;6314162;20;3517956;-60
2023/06/18 05:51:32;;;;;;;;;16.50;14.00;;;;;19.93;73.50;99519.25;6285065;20;2796158;-60
2023/06/18 05:54:00;;;;;;;;;15.67;13.67;;;;;20.43;72.27;99523.13;6283768;20;3533602;-61
2023/06/18 05:56:28;;;;;;;;;12.67;12.33;;;;;20.30;72.63;99531.78;6282674;20;3522177;-60
2023/06/18 05:58:56;;;;;;;;;14.00;12.67;;;;;20.56;70.41;99525.47;6314944;20;3503448;-60
2023/06/18 06:01:24;;;;;;;;;16.00;14.33;;;;;20.66;70.28;99525.34;6315164;20;3535700;-60
2023/06/18 06:03:52;;;;;;;;;15.00;12.00;;;;;21.00;69.39;99536.25;6315195;20;2483835;-61
2023/06/18 06:06:20;;;;;;;;;12.00;12.00;;;;;20.73;70.00;99540.91;6283561;20;3520128;-60
2023/06/18 06:08:48;;;;;;;;;14.33;13.00;;;;;21.18;67.95;99544.31;6314718;20;3530502;-60
2023/06/18 06:11:16;;;;;;;;;12.00;11.00;;;;;21.38;68.34;99539.44;6282429;20;3518027;-60
2023/06/18 06:13:45;;;;;;;;;13.67;12.00;;;;;21.26;68.67;99539.72;6288634;20;2787433;-60
2023/06/18 06:16:13;;;;;;;;;14.33;12.00;;;;;21.41;67.89;99550.06;6313985;20;3522224;-60
2023/06/18 06:18:41;;;;;;;;;13.67;12.67;;;;;21.77;66.96;99549.75;6312766;20;3520063;-58
2023/06/18 06:21:09;;;;;;;;;12.67;12.67;;;;;21.97;66.14;99550.28;6286029;20;2799751;-61
2023/06/18 06:23:37;;;;;;;;;13.33;12.00;;;;;21.97;66.68;99551.13;6319936;20;2792070;-58
2023/06/18 06:26:05;;;;;;;;;15.33;12.00;;;;;22.32;65.45;99549.06;6311778;20;2483691;-60
2023/06/18 06:28:33;;;;;;;;;14.67;12.00;;;;;22.41;61.43;99548.03;6314362;20;3535772;-61
2023/06/18 06:31:04;;;;;;;;;15.00;12.33;;;;;22.57;62.46;99555.34;6283112;20;2487887;-58
2023/06/18 06:33:32;;;;;;;;;11.00;8.33;;;;;23.14;60.28;99554.28;6315561;20;2774270;-58
2023/06/18 06:36:00;;;;;;;;;12.00;11.33;;;;;23.05;60.48;99563.59;6315040;20;3517978;-58
2023/06/18 06:38:28;;;;;;;;;14.00;11.33;;;;;23.09;60.97;99563.06;6313294;20;3527361;-58
2023/06/18 06:40:56;;;;;;;;;10.00;10.00;;;;;23.55;58.45;99562.28;6280880;20;3510811;-58
2023/06/18 06:43:24;;;;;;;;;12.33;12.33;;;;;23.64;58.65;99570.28;6314515;20;2483616;-58
2023/06/18 06:45:52;;;;;;;;;10.00;10.00;;;;;23.86;57.67;99560.38;6314573;20;2779478;-58
2023/06/18 06:48:21;;;;;;;;;9.00;9.00;;;;;23.67;56.93;99558.06;6323331;20;2744051;-58
2023/06/18 06:50:49;;;;;;;;;12.67;12.00;;;;;24.27;54.90;99565.50;6313970;20;3513191;-59
2023/06/18 06:53:17;;;;;;;;;11.33;10.33;;;;;24.56;56.00;99566.63;6312211;20;3513169;-59
2023/06/18 06:55:45;;;;;;;;;10.00;10.00;;;;;24.94;54.03;99563.81;6284482;20;2789994;-59
2023/06/18 06:58:13;;;;;;;;;9.00;8.33;;;;;24.74;54.55;99569.00;6312447;20;2747192;-59
2023/06/18 07:00:41;;;;;;;;;11.00;11.00;;;;;25.30;52.41;99563.00;6311429;20;3513813;-59
2023/06/18 07:03:09;;;;;;;;;12.33;11.00;;;;;24.39;56.98;99562.31;6287140;20;2815952;-59
2023/06/18 07:05:38;;;;;;;;;9.67;9.67;;;;;24.73;55.30;99562.66;6311992;20;3490929;-58
2023/06/18 07:08:06;;;;;;;;;11.00;11.00;;;;;25.46;52.28;99562.81;6312967;20;3516983;-59
2023/06/18 07:10:34;;;;;;;;;9.00;9.00;;;;;25.40;51.80;99558.06;6315945;20;2748210;-59
2023/06/18 07:13:03;;;;;;;;;8.67;8.67;;;;;25.95;51.53;99559.31;6312238;20;2745072;-58
2023/06/18 07:15:31;;;;;;;;;8.67;8.67;;;;;26.01;50.79;99569.53;6317508;20;2748301;-61
2023/06/18 07:17:59;;;;;;;;;10.67;9.67;;;;;26.09;49.25;99564.94;6318866;20;2784776;-60
2023/06/18 07:20:28;;;;;;;;;10.00;9.00;;;;;26.08;49.21;99566.00;6310889;20;3489870;-59
2023/06/18 07:22:56;;;;;;;;;10.33;10.00;;;;;26.17;49.85;99570.28;6312813;20;2793100;-59
2023/06/18 07:25:24;;;;;;;;;6.33;6.33;;;;;26.54;44.67;99568.28;6314518;20;2741123;-59
2023/06/18 07:27:52;;;;;;;;;9.33;9.33;;;;;26.14;47.20;99559.69;6306546;20;2770117;-59
2023/06/18 07:30:20;;;;;;;;;11.33;8.00;;;;;26.22;45.24;99565.03;6311001;20;2773285;-59
2023/06/18 07:32:48;;;;;;;;;8.00;8.00;;;;;26.57;43.88;99570.63;6312724;20;3464914;-60
2023/06/18 07:35:18;;;;;;;;;8.20;8.20;;;;;25.79;44.60;99562.28;6338172;20;2742070;-60
2023/06/18 07:37:46;;;;;;;;;7.67;7.67;;;;;26.60;44.20;99564.75;6283743;20;2754459;-60
2023/06/18 07:40:14;;;;;;;;;10.00;9.00;;;;;26.21;43.37;99561.44;6311571;20;2766006;-59
2023/06/18 07:42:43;;;;;;;;;2.00;2.00;;;;;26.53;44.04;99563.84;6336532;20;2741975;-61
2023/06/18 07:45:11;;;;;;;;;6.33;6.33;;;;;27.10;42.69;99565.47;6314638;20;2750315;-60
2023/06/18 07:47:39;;;;;;;;;9.00;8.33;;;;;27.09;42.07;99569.25;6322340;20;2748243;-60
2023/06/18 07:50:08;;;;;;;;;8.00;7.67;;;;;27.04;41.11;99569.00;6313721;20;2754498;-60
2023/06/18 07:52:37;;;;;;;;;6.00;4.33;;;;;27.52;39.50;99560.78;6317874;20;2730484;-60
2023/06/18 07:55:05;;;;;;;;;6.67;6.67;;;;;27.11;40.20;99556.13;6304305;20;2741955;-60
2023/06/18 07:57:33;;;;;;;;;8.00;8.00;;;;;27.38;40.16;99561.78;6319095;20;2743059;-61
2023/06/18 08:00:01;;;;;;;;;10.00;7.67;;;;;27.30;41.06;99558.13;6311147;20;2771103;-59
2023/06/18 08:02:30;;;;;;;;;7.00;7.00;;;;;27.08;39.44;99560.13;6314386;20;2741960;-61
2023/06/18 08:04:58;;;;;;;;;7.33;7.33;;;;;27.12;40.07;99555.06;6317434;20;2746178;-60
2023/06/18 08:07:26;;;;;;;;;6.33;6.33;;;;;27.10;41.09;99559.94;6318222;20;2733661;-60
2023/06/18 08:09:53;;;;;;;;;6.67;6.67;;;;;27.15;41.47;99558.28;6313178;20;2734755;-59
2023/06/18 08:12:21;;;;;;;;;5.00;5.00;;;;;27.15;40.97;99558.28;6315957;20;2739863;-60
2023/06/18 08:14:49;;;;;;;;;7.00;7.00;;;;;27.73;40.69;99557.00;6315513;20;2742991;-60
2023/06/18 08:17:17;;;;;;;;;7.00;7.00;;;;;27.78;39.99;99558.06;6320678;20;2740015;-60
2023/06/18 08:19:47;;;;;;;;;8.67;7.00;;;;;27.23;39.05;99559.19;6315341;20;2752478;-59
2023/06/18 08:22:16;;;;;;;;;8.00;6.33;;;;;27.21;40.43;99556.63;6319230;20;2750333;-60
2023/06/18 08:24:45;;;;;;;;;7.00;7.00;;;;;27.09;40.08;99561.88;6316090;20;2747163;-62
2023/06/18 08:27:15;;;;;;;;;7.33;7.33;;;;;27.40;41.06;99546.72;6315813;20;2750334;-70
2023/06/18 08:29:43;;;;;;;;;7.00;7.00;;;;;27.46;40.46;99553.31;6295667;20;2744041;-72
2023/06/18 08:32:15;;;;;;;;;6.00;5.80;;;;;27.69;40.35;99548.28;6333939;20;2740917;-75
2023/06/18 08:34:45;;;;;;;;;9.40;8.00;;;;;27.36;40.21;99549.06;6319232;20;2753362;-71
2023/06/18 08:37:14;;;;;;;;;8.40;7.20;;;;;27.55;39.74;99552.09;6325312;20;2752642;-70
2023/06/18 08:39:46;;;;;;;;;7.40;7.40;;;;;27.82;39.75;99563.22;6322860;20;2735814;-73
2023/06/18 08:42:20;;;;;;;;;6.67;6.67;;;;;28.42;40.30;99561.31;6302992;20;2741922;-73
2023/06/18 08:44:50;;;;;;;;;3.00;3.00;;;;;27.77;39.93;99556.34;6331471;20;2742043;-66
2023/06/18 08:47:19;;;;;;;;;7.00;7.00;;;;;27.39;40.77;99549.72;6333194;20;2746161;-70
2023/06/18 08:49:51;;;;;;;;;7.00;7.00;;;;;27.39;39.34;99546.94;6332691;20;2748410;-71
2023/06/18 08:52:23;;;;;;;;;5.00;5.00;;;;;27.77;40.31;99544.47;6337925;20;2739817;-71
2023/06/18 08:54:54;;;;;;;;;5.67;5.67;;;;;27.70;39.13;99544.47;6329002;20;2746308;-71
2023/06/18 08:58:00;;;;;;;;;4.60;4.60;;;;;27.44;37.48;99547.19;6354369;20;2737782;-68
2023/06/18 09:00:29;;;;;;;;;5.20;5.20;;;;;27.32;37.38;99539.47;6321525;20;2750222;-69
2023/06/18 09:02:58;;;;;;;;;6.33;5.67;;;;;28.21;35.92;99551.34;6301493;20;2742030;-71
2023/06/18 09:05:30;;;;;;;;;5.00;5.00;;;;;27.49;36.04;99541.84;6325745;20;2740950;-71
2023/06/18 09:07:58;;;;;;;;;4.67;4.00;;;;;27.23;37.01;99556.44;6329830;20;2739892;-68
2023/06/18 09:10:30;;;;;;;;;9.00;6.00;;;;;27.56;35.74;99543.59;6329221;20;2742065;-67
2023/06/18 09:13:00;;;;;;;;;6.80;6.80;;;;;27.32;36.71;99542.25;6355970;20;2744083;-69
2023/06/18 09:15:28;;;;;;;;;5.33;5.33;;;;;27.42;37.20;99543.78;6299261;20;2739897;-68
2023/06/18 09:17:56;;;;;;;;;5.33;5.33;;;;;27.19;38.23;99553.22;6333107;20;2732561;-71
2023/06/18 09:20:26;;;;;;;;;6.33;6.33;;;;;27.65;37.69;99546.16;6329675;20;2746164;-69
2023/06/18 09:22:54;;;;;;;;;9.00;7.33;;;;;27.93;36.53;99546.03;6328569;20;2744159;-70
2023/06/18 09:25:24;;;;;;;;;7.33;5.67;;;;;27.56;38.15;99551.84;6330249;20;2738952;-69
2023/06/18 09:27:56;;;;;;;;;5.00;5.00;;;;;27.33;38.30;99555.00;6328575;20;2728485;-71
2023/06/18 09:30:27;;;;;;;;;7.00;6.00;;;;;27.56;37.48;99549.09;6328996;20;2738878;-70
2023/06/18 09:32:59;;;;;;;;;8.33;6.33;;;;;26.98;38.46;99545.03;6331295;20;2739913;-68
2023/06/18 09:35:30;;;;;;;;;7.00;6.00;;;;;27.27;39.90;99550.28;6353300;20;2728363;-69
2023/06/18 09:38:08;;;;;;;;;5.20;5.20;;;;;27.90;39.17;99541.78;6357224;20;2736811;-69
2023/06/18 09:40:36;;;;;;;;;6.33;6.33;;;;;27.86;38.70;99553.44;6300637;20;2748289;-72
2023/06/18 09:43:04;;;;;;;;;6.67;6.67;;;;;27.91;37.37;99556.41;6328234;20;2750309;-72
2023/06/18 09:45:32;;;;;;;;;5.67;5.67;;;;;28.24;36.78;99549.00;6339156;20;2738921;-70
2023/06/18 09:48:00;;;;;;;;;7.00;6.00;;;;;27.88;37.91;99546.63;6328361;20;2743966;-69
2023/06/18 09:50:28;;;;;;;;;9.67;7.67;;;;;27.97;37.94;99536.28;6326660;20;2763003;-70
2023/06/18 09:52:57;;;;;;;;;7.40;7.40;;;;;28.15;37.21;99539.25;6357470;20;2752322;-69
2023/06/18 09:55:33;;;;;;;;;7.33;7.33;;;;;28.61;37.53;99552.19;6299168;20;2754496;-69
2023/06/18 09:58:01;;;;;;;;;7.33;7.33;;;;;29.12;35.65;99552.50;6332756;20;2744005;-70
2023/06/18 10:00:31;;;;;;;;;8.00;8.00;;;;;27.96;36.03;99542.84;6331855;20;2748315;-69
2023/06/18 10:03:07;;;;;;;;;6.00;6.00;;;;;29.00;34.24;99550.38;6335142;20;2748152;-69
2023/06/18 10:05:37;;;;;;;;;9.67;8.00;;;;;28.34;34.84;99540.28;6330438;20;2750365;-72
2023/06/18 10:08:09;;;;;;;;;7.00;6.00;;;;;28.18;36.33;99536.06;6325685;20;2733768;-73
2023/06/18 10:10:45;;;;;;;;;7.67;7.00;;;;;28.57;36.15;99541.78;6324820;20;2748168;-74
2023/06/18 10:13:13;;;;;;;;;7.33;7.33;;;;;28.89;35.98;99545.53;6327222;20;2746179;-70
2023/06/18 10:15:43;;;;;;;;;8.33;8.33;;;;;29.24;34.88;99548.00;6334860;20;2748118;-69
2023/06/18 10:18:22;;;;;;;;;8.00;7.00;;;;;28.84;35.71;99534.28;6328859;20;2756514;-69
2023/06/18 10:20:57;;;;;;;;;9.67;8.00;;;;;28.89;35.55;99537.25;6320099;20;2755416;-73
2023/06/18 10:23:27;;;;;;;;;7.00;7.00;;;;;28.45;35.13;99534.16;6324291;20;2743974;-72
2023/06/18 10:25:56;;;;;;;;;6.33;6.00;;;;;29.14;35.74;99544.84;6329455;20;2744079;-71
2023/06/18 10:28:25;;;;;;;;;7.00;6.00;;;;;28.91;34.68;99545.31;6323743;20;2746085;-69
2023/06/18 10:30:53;;;;;;;;;8.33;8.33;;;;;28.69;34.97;99545.59;6330585;20;2746176;-70
2023/06/18 10:33:22;;;;;;;;;6.33;6.33;;;;;28.83;34.14;99544.50;6329651;20;2730481;-71
2023/06/18 10:35:54;;;;;;;;;6.33;6.33;;;;;28.64;33.87;99546.22;6323505;20;2739984;-72
2023/06/18 10:38:22;;;;;;;;;7.00;7.00;;;;;29.53;33.09;99544.66;6327842;20;2748378;-73
2023/06/18 10:41:12;;;;;;;;;6.33;6.33;;;;;29.72;31.94;99531.78;6331293;20;2736765;-69
2023/06/18 10:43:41;;;;;;;;;8.33;7.33;;;;;29.15;33.81;99547.41;6329558;20;2736690;-69
2023/06/18 10:46:12;;;;;;;;;8.00;7.00;;;;;29.10;33.22;99539.75;6329704;20;2751253;-73
2023/06/18 10:48:40;;;;;;;;;6.33;6.33;;;;;29.06;31.46;99535.72;6331717;20;2739899;-71
2023/06/18 10:51:18;;;;;;;;;7.00;7.00;;;;;29.81;31.94;99543.47;6331330;20;2731581;-71
2023/06/18 10:53:49;;;;;;;;;9.67;7.67;;;;;29.25;32.42;99527.56;6335975;20;2762756;-72
2023/06/18 10:56:17;;;;;;;;;10.00;7.33;;;;;29.26;33.21;99532.88;6324313;20;2768066;-73
2023/06/18 10:58:45;;;;;;;;;7.00;7.00;;;;;29.20;33.37;99536.53;6339516;20;2752314;-70
2023/06/18 11:01:24;;;;;;;;;9.33;9.33;;;;;29.88;31.13;99540.63;6331548;20;3483626;-76
2023/06/18 11:04:02;;;;;;;;;9.00;7.00;;;;;29.04;31.69;99540.66;6329352;20;2747079;-66
2023/06/18 11:06:31;;;;;;;;;11.00;10.00;;;;;28.85;32.36;99524.91;6326916;20;3515936;-69
2023/06/18 11:08:59;;;;;;;;;8.67;8.67;;;;;29.59;32.90;99529.06;6328018;20;2744016;-71
2023/06/18 11:11:31;;;;;;;;;9.00;9.00;;;;;28.76;33.72;99516.03;6335368;20;2750339;-70
2023/06/18 11:14:19;;;;;;;;;9.67;9.67;;;;;29.26;33.85;99516.28;6328893;20;2763924;-73